sensor_id;sensor_type;location;lat;lon;timestamp;P1;durP1;ratioP1;P2;durP2;ratioP2
68168;SDS011;54981;50.206;15.978;2023-09-08T00:01:37;12.77;;;11.45;;
68168;SDS011;54981;50.206;15.978;2023-09-08T00:04:08;13.50;;;12.25;;
68168;SDS011;54981;50.206;15.978;2023-09-08T00:06:38;14.57;;;13.27;;
68168;SDS011;54981;50.206;15.978;2023-09-08T00:09:09;14.73;;;13.43;;
68168;SDS011;54981;50.206;15.978;2023-09-08T00:11:39;14.55;;;13.25;;
68168;SDS011;54981;50.206;15.978;2023-09-08T00:14:09;14.65;;;13.45;;
68168;SDS011;54981;50.206;15.978;2023-09-08T00:16:40;13.52;;;12.43;;
68168;SDS011;54981;50.206;15.978;2023-09-08T00:19:12;14.55;;;13.15;;
68168;SDS011;54981;50.206;15.978;2023-09-08T00:21:42;14.65;;;13.35;;
68168;SDS011;54981;50.206;15.978;2023-09-08T00:24:13;16.02;;;14.68;;
68168;SDS011;54981;50.206;15.978;2023-09-08T00:26:43;16.23;;;14.80;;
68168;SDS011;54981;50.206;15.978;2023-09-08T00:29:14;16.63;;;15.18;;
68168;SDS011;54981;50.206;15.978;2023-09-08T00:31:44;14.65;;;13.27;;
68168;SDS011;54981;50.206;15.978;2023-09-08T00:34:14;15.90;;;14.50;;
68168;SDS011;54981;50.206;15.978;2023-09-08T00:36:45;14.48;;;13.20;;
68168;SDS011;54981;50.206;15.978;2023-09-08T00:39:15;14.65;;;13.18;;
68168;SDS011;54981;50.206;15.978;2023-09-08T00:41:46;14.77;;;13.48;;
68168;SDS011;54981;50.206;15.978;2023-09-08T00:44:16;14.15;;;12.95;;
68168;SDS011;54981;50.206;15.978;2023-09-08T00:46:46;15.80;;;14.50;;
68168;SDS011;54981;50.206;15.978;2023-09-08T00:49:17;15.32;;;14.02;;
68168;SDS011;54981;50.206;15.978;2023-09-08T00:51:47;15.27;;;13.98;;
68168;SDS011;54981;50.206;15.978;2023-09-08T00:54:18;15.02;;;13.73;;
68168;SDS011;54981;50.206;15.978;2023-09-08T00:56:48;15.75;;;14.40;;
68168;SDS011;54981;50.206;15.978;2023-09-08T01:01:52;16.48;;;15.07;;
68168;SDS011;54981;50.206;15.978;2023-09-08T01:04:23;16.48;;;15.07;;
68168;SDS011;54981;50.206;15.978;2023-09-08T01:06:54;15.60;;;14.02;;
68168;SDS011;54981;50.206;15.978;2023-09-08T01:09:26;15.40;;;14.10;;
68168;SDS011;54981;50.206;15.978;2023-09-08T01:11:56;13.95;;;12.75;;
68168;SDS011;54981;50.206;15.978;2023-09-08T01:14:30;15.20;;;13.95;;
68168;SDS011;54981;50.206;15.978;2023-09-08T01:17:01;15.80;;;14.40;;
68168;SDS011;54981;50.206;15.978;2023-09-08T01:19:31;14.88;;;13.65;;
68168;SDS011;54981;50.206;15.978;2023-09-08T01:27:40;16.58;;;15.07;;
68168;SDS011;54981;50.206;15.978;2023-09-08T01:30:16;14.70;;;13.50;;
68168;SDS011;54981;50.206;15.978;2023-09-08T01:32:46;15.30;;;14.00;;
68168;SDS011;54981;50.206;15.978;2023-09-08T01:35:18;14.57;;;13.30;;
68168;SDS011;54981;50.206;15.978;2023-09-08T01:37:48;14.85;;;13.52;;
68168;SDS011;54981;50.206;15.978;2023-09-08T01:40:19;15.77;;;14.27;;
68168;SDS011;54981;50.206;15.978;2023-09-08T01:42:49;15.80;;;14.45;;
68168;SDS011;54981;50.206;15.978;2023-09-08T01:45:20;15.82;;;14.52;;
68168;SDS011;54981;50.206;15.978;2023-09-08T01:47:50;15.27;;;13.98;;
68168;SDS011;54981;50.206;15.978;2023-09-08T01:50:20;15.50;;;14.18;;
68168;SDS011;54981;50.206;15.978;2023-09-08T01:52:51;16.58;;;14.43;;
68168;SDS011;54981;50.206;15.978;2023-09-08T01:55:22;16.23;;;14.65;;
68168;SDS011;54981;50.206;15.978;2023-09-08T01:57:52;15.77;;;14.40;;
68168;SDS011;54981;50.206;15.978;2023-09-08T02:00:22;14.65;;;13.45;;
68168;SDS011;54981;50.206;15.978;2023-09-08T02:02:53;15.38;;;14.07;;
68168;SDS011;54981;50.206;15.978;2023-09-08T02:05:23;14.77;;;13.48;;
68168;SDS011;54981;50.206;15.978;2023-09-08T02:07:55;14.15;;;12.95;;
68168;SDS011;54981;50.206;15.978;2023-09-08T02:10:26;14.90;;;13.60;;
68168;SDS011;54981;50.206;15.978;2023-09-08T02:12:57;14.88;;;13.57;;
68168;SDS011;54981;50.206;15.978;2023-09-08T02:15:27;14.27;;;13.07;;
68168;SDS011;54981;50.206;15.978;2023-09-08T02:17:58;15.77;;;14.30;;
68168;SDS011;54981;50.206;15.978;2023-09-08T02:20:28;15.07;;;13.77;;
68168;SDS011;54981;50.206;15.978;2023-09-08T02:23:03;15.98;;;14.68;;
68168;SDS011;54981;50.206;15.978;2023-09-08T02:25:35;16.30;;;14.93;;
68168;SDS011;54981;50.206;15.978;2023-09-08T02:28:05;14.90;;;13.70;;
68168;SDS011;54981;50.206;15.978;2023-09-08T02:30:35;14.13;;;13.02;;
68168;SDS011;54981;50.206;15.978;2023-09-08T02:33:07;15.10;;;13.90;;
68168;SDS011;54981;50.206;15.978;2023-09-08T02:35:37;14.32;;;13.13;;
68168;SDS011;54981;50.206;15.978;2023-09-08T02:38:11;13.43;;;12.25;;
68168;SDS011;54981;50.206;15.978;2023-09-08T02:40:41;14.77;;;13.52;;
68168;SDS011;54981;50.206;15.978;2023-09-08T02:43:13;13.68;;;12.38;;
68168;SDS011;54981;50.206;15.978;2023-09-08T02:45:43;15.18;;;13.68;;
68168;SDS011;54981;50.206;15.978;2023-09-08T02:48:13;15.63;;;14.23;;
68168;SDS011;54981;50.206;15.978;2023-09-08T02:50:44;16.40;;;14.90;;
68168;SDS011;54981;50.206;15.978;2023-09-08T02:53:14;14.45;;;13.05;;
68168;SDS011;54981;50.206;15.978;2023-09-08T02:55:45;14.82;;;13.50;;
68168;SDS011;54981;50.206;15.978;2023-09-08T02:58:16;14.60;;;13.18;;
68168;SDS011;54981;50.206;15.978;2023-09-08T03:00:46;15.38;;;14.18;;
68168;SDS011;54981;50.206;15.978;2023-09-08T03:03:16;14.75;;;13.35;;
68168;SDS011;54981;50.206;15.978;2023-09-08T03:05:47;15.27;;;13.88;;
68168;SDS011;54981;50.206;15.978;2023-09-08T03:08:17;16.42;;;15.02;;
68168;SDS011;54981;50.206;15.978;2023-09-08T03:10:48;17.23;;;15.75;;
68168;SDS011;54981;50.206;15.978;2023-09-08T03:13:19;15.88;;;14.57;;
68168;SDS011;54981;50.206;15.978;2023-09-08T03:15:49;14.75;;;13.57;;
68168;SDS011;54981;50.206;15.978;2023-09-08T03:18:20;14.43;;;13.23;;
68168;SDS011;54981;50.206;15.978;2023-09-08T03:20:50;15.05;;;13.75;;
68168;SDS011;54981;50.206;15.978;2023-09-08T03:23:21;15.80;;;14.43;;
68168;SDS011;54981;50.206;15.978;2023-09-08T03:25:51;14.98;;;13.65;;
68168;SDS011;54981;50.206;15.978;2023-09-08T03:28:21;15.10;;;13.80;;
68168;SDS011;54981;50.206;15.978;2023-09-08T03:30:52;14.52;;;13.23;;
68168;SDS011;54981;50.206;15.978;2023-09-08T03:33:23;16.08;;;14.77;;
68168;SDS011;54981;50.206;15.978;2023-09-08T03:35:53;15.05;;;13.75;;
68168;SDS011;54981;50.206;15.978;2023-09-08T03:38:24;15.43;;;13.98;;
68168;SDS011;54981;50.206;15.978;2023-09-08T03:40:55;14.75;;;13.50;;
68168;SDS011;54981;50.206;15.978;2023-09-08T03:43:25;15.02;;;13.73;;
68168;SDS011;54981;50.206;15.978;2023-09-08T03:45:56;14.45;;;13.25;;
68168;SDS011;54981;50.206;15.978;2023-09-08T03:48:26;13.73;;;12.65;;
68168;SDS011;54981;50.206;15.978;2023-09-08T03:50:56;14.52;;;13.32;;
68168;SDS011;54981;50.206;15.978;2023-09-08T03:53:28;14.07;;;12.98;;
68168;SDS011;54981;50.206;15.978;2023-09-08T03:55:58;14.35;;;13.05;;
68168;SDS011;54981;50.206;15.978;2023-09-08T03:58:28;14.35;;;13.05;;
68168;SDS011;54981;50.206;15.978;2023-09-08T04:00:59;14.57;;;13.27;;
68168;SDS011;54981;50.206;15.978;2023-09-08T04:03:29;14.13;;;12.93;;
68168;SDS011;54981;50.206;15.978;2023-09-08T04:05:59;13.77;;;12.48;;
68168;SDS011;54981;50.206;15.978;2023-09-08T04:08:30;13.80;;;12.70;;
68168;SDS011;54981;50.206;15.978;2023-09-08T04:11:00;15.50;;;14.15;;
68168;SDS011;54981;50.206;15.978;2023-09-08T04:13:30;14.82;;;13.63;;
68168;SDS011;54981;50.206;15.978;2023-09-08T04:16:01;15.35;;;14.05;;
68168;SDS011;54981;50.206;15.978;2023-09-08T04:18:31;15.27;;;14.07;;
68168;SDS011;54981;50.206;15.978;2023-09-08T04:21:01;15.65;;;14.25;;
68168;SDS011;54981;50.206;15.978;2023-09-08T04:23:32;15.43;;;14.00;;
68168;SDS011;54981;50.206;15.978;2023-09-08T04:26:02;16.48;;;14.98;;
68168;SDS011;54981;50.206;15.978;2023-09-08T04:28:32;14.70;;;13.40;;
68168;SDS011;54981;50.206;15.978;2023-09-08T04:31:03;14.82;;;13.63;;
68168;SDS011;54981;50.206;15.978;2023-09-08T04:33:33;14.30;;;13.10;;
68168;SDS011;54981;50.206;15.978;2023-09-08T04:36:04;15.27;;;13.77;;
68168;SDS011;54981;50.206;15.978;2023-09-08T04:38:34;15.27;;;14.07;;
68168;SDS011;54981;50.206;15.978;2023-09-08T04:41:04;16.35;;;14.85;;
68168;SDS011;54981;50.206;15.978;2023-09-08T04:43:35;18.45;;;16.85;;
68168;SDS011;54981;50.206;15.978;2023-09-08T04:46:05;18.35;;;16.85;;
68168;SDS011;54981;50.206;15.978;2023-09-08T04:48:36;18.77;;;17.27;;
68168;SDS011;54981;50.206;15.978;2023-09-08T04:51:06;18.63;;;16.92;;
68168;SDS011;54981;50.206;15.978;2023-09-08T04:53:37;18.52;;;16.65;;
68168;SDS011;54981;50.206;15.978;2023-09-08T04:56:07;17.25;;;15.85;;
68168;SDS011;54981;50.206;15.978;2023-09-08T04:58:38;18.35;;;16.75;;
68168;SDS011;54981;50.206;15.978;2023-09-08T05:01:08;16.70;;;15.20;;
68168;SDS011;54981;50.206;15.978;2023-09-08T05:03:39;17.58;;;16.05;;
68168;SDS011;54981;50.206;15.978;2023-09-08T05:06:09;16.92;;;15.40;;
68168;SDS011;54981;50.206;15.978;2023-09-08T05:08:39;17.63;;;16.13;;
68168;SDS011;54981;50.206;15.978;2023-09-08T05:11:10;18.58;;;16.98;;
68168;SDS011;54981;50.206;15.978;2023-09-08T05:13:40;17.25;;;15.65;;
68168;SDS011;54981;50.206;15.978;2023-09-08T05:16:10;19.02;;;17.52;;
68168;SDS011;54981;50.206;15.978;2023-09-08T05:18:41;19.25;;;17.65;;
68168;SDS011;54981;50.206;15.978;2023-09-08T05:21:12;18.08;;;16.48;;
68168;SDS011;54981;50.206;15.978;2023-09-08T05:23:44;18.50;;;17.00;;
68168;SDS011;54981;50.206;15.978;2023-09-08T05:26:14;20.27;;;18.52;;
68168;SDS011;54981;50.206;15.978;2023-09-08T05:28:44;18.35;;;16.85;;
68168;SDS011;54981;50.206;15.978;2023-09-08T05:31:15;21.05;;;19.17;;
68168;SDS011;54981;50.206;15.978;2023-09-08T05:33:45;19.05;;;17.35;;
68168;SDS011;54981;50.206;15.978;2023-09-08T05:36:15;18.45;;;16.67;;
68168;SDS011;54981;50.206;15.978;2023-09-08T05:38:46;23.73;;;21.45;;
68168;SDS011;54981;50.206;15.978;2023-09-08T05:41:16;22.73;;;20.73;;
68168;SDS011;54981;50.206;15.978;2023-09-08T05:43:47;23.85;;;21.75;;
68168;SDS011;54981;50.206;15.978;2023-09-08T05:46:18;28.23;;;25.27;;
68168;SDS011;54981;50.206;15.978;2023-09-08T05:48:48;25.73;;;23.17;;
68168;SDS011;54981;50.206;15.978;2023-09-08T05:51:19;25.08;;;22.98;;
68168;SDS011;54981;50.206;15.978;2023-09-08T05:53:49;23.30;;;21.30;;
68168;SDS011;54981;50.206;15.978;2023-09-08T05:56:19;23.30;;;21.40;;
68168;SDS011;54981;50.206;15.978;2023-09-08T05:58:50;24.25;;;22.23;;
68168;SDS011;54981;50.206;15.978;2023-09-08T06:01:20;24.05;;;21.80;;
68168;SDS011;54981;50.206;15.978;2023-09-08T06:03:50;23.75;;;21.55;;
68168;SDS011;54981;50.206;15.978;2023-09-08T06:06:21;22.20;;;20.20;;
68168;SDS011;54981;50.206;15.978;2023-09-08T06:08:52;20.63;;;18.67;;
68168;SDS011;54981;50.206;15.978;2023-09-08T06:11:22;20.35;;;18.45;;
68168;SDS011;54981;50.206;15.978;2023-09-08T06:13:52;21.08;;;19.17;;
68168;SDS011;54981;50.206;15.978;2023-09-08T06:16:26;21.85;;;19.60;;
68168;SDS011;54981;50.206;15.978;2023-09-08T06:18:56;20.52;;;18.52;;
68168;SDS011;54981;50.206;15.978;2023-09-08T06:21:26;21.35;;;19.55;;
68168;SDS011;54981;50.206;15.978;2023-09-08T06:23:57;21.67;;;19.70;;
68168;SDS011;54981;50.206;15.978;2023-09-08T06:26:27;20.17;;;18.35;;
68168;SDS011;54981;50.206;15.978;2023-09-08T06:28:58;21.95;;;19.77;;
68168;SDS011;54981;50.206;15.978;2023-09-08T06:31:28;18.05;;;16.23;;
68168;SDS011;54981;50.206;15.978;2023-09-08T06:33:58;17.83;;;16.02;;
68168;SDS011;54981;50.206;15.978;2023-09-08T06:36:29;18.25;;;16.45;;
68168;SDS011;54981;50.206;15.978;2023-09-08T06:38:59;16.80;;;15.00;;
68168;SDS011;54981;50.206;15.978;2023-09-08T06:41:30;17.40;;;15.90;;
68168;SDS011;54981;50.206;15.978;2023-09-08T06:44:00;16.65;;;14.90;;
68168;SDS011;54981;50.206;15.978;2023-09-08T06:46:30;16.60;;;14.85;;
68168;SDS011;54981;50.206;15.978;2023-09-08T06:49:01;17.52;;;15.25;;
68168;SDS011;54981;50.206;15.978;2023-09-08T06:51:31;17.35;;;15.75;;
68168;SDS011;54981;50.206;15.978;2023-09-08T06:54:02;15.68;;;14.27;;
68168;SDS011;54981;50.206;15.978;2023-09-08T06:56:35;16.10;;;14.60;;
68168;SDS011;54981;50.206;15.978;2023-09-08T06:59:05;14.65;;;13.15;;
68168;SDS011;54981;50.206;15.978;2023-09-08T07:01:36;16.52;;;14.80;;
68168;SDS011;54981;50.206;15.978;2023-09-08T07:04:06;16.60;;;14.15;;
68168;SDS011;54981;50.206;15.978;2023-09-08T07:06:37;16.10;;;14.50;;
68168;SDS011;54981;50.206;15.978;2023-09-08T07:09:08;15.57;;;13.93;;
68168;SDS011;54981;50.206;15.978;2023-09-08T07:11:38;14.60;;;13.02;;
68168;SDS011;54981;50.206;15.978;2023-09-08T07:14:09;17.70;;;13.07;;
68168;SDS011;54981;50.206;15.978;2023-09-08T07:16:39;15.15;;;13.57;;
68168;SDS011;54981;50.206;15.978;2023-09-08T07:19:09;17.73;;;13.52;;
68168;SDS011;54981;50.206;15.978;2023-09-08T07:21:40;13.70;;;12.30;;
68168;SDS011;54981;50.206;15.978;2023-09-08T07:24:10;13.10;;;11.55;;
68168;SDS011;54981;50.206;15.978;2023-09-08T07:26:40;12.65;;;11.35;;
68168;SDS011;54981;50.206;15.978;2023-09-08T07:29:11;11.77;;;10.68;;
68168;SDS011;54981;50.206;15.978;2023-09-08T07:31:42;13.93;;;11.10;;
68168;SDS011;54981;50.206;15.978;2023-09-08T07:34:12;12.85;;;11.25;;
68168;SDS011;54981;50.206;15.978;2023-09-08T07:36:43;12.73;;;10.88;;
68168;SDS011;54981;50.206;15.978;2023-09-08T07:39:13;11.32;;;10.23;;
68168;SDS011;54981;50.206;15.978;2023-09-08T07:41:44;12.00;;;10.80;;
68168;SDS011;54981;50.206;15.978;2023-09-08T07:44:14;10.73;;;9.73;;
68168;SDS011;54981;50.206;15.978;2023-09-08T07:46:44;12.15;;;10.95;;
68168;SDS011;54981;50.206;15.978;2023-09-08T07:49:16;11.07;;;9.80;;
68168;SDS011;54981;50.206;15.978;2023-09-08T07:51:48;14.45;;;10.98;;
68168;SDS011;54981;50.206;15.978;2023-09-08T07:54:19;11.57;;;10.38;;
68168;SDS011;54981;50.206;15.978;2023-09-08T07:56:49;11.43;;;10.30;;
68168;SDS011;54981;50.206;15.978;2023-09-08T07:59:19;11.80;;;10.60;;
68168;SDS011;54981;50.206;15.978;2023-09-08T08:01:50;11.38;;;10.20;;
68168;SDS011;54981;50.206;15.978;2023-09-08T08:04:20;15.65;;;10.32;;
68168;SDS011;54981;50.206;15.978;2023-09-08T08:06:51;12.23;;;10.93;;
68168;SDS011;54981;50.206;15.978;2023-09-08T08:09:21;10.57;;;9.52;;
68168;SDS011;54981;50.206;15.978;2023-09-08T08:11:51;11.27;;;10.18;;
68168;SDS011;54981;50.206;15.978;2023-09-08T08:14:22;12.77;;;10.65;;
68168;SDS011;54981;50.206;15.978;2023-09-08T08:16:52;11.48;;;9.57;;
68168;SDS011;54981;50.206;15.978;2023-09-08T08:19:23;11.40;;;10.10;;
68168;SDS011;54981;50.206;15.978;2023-09-08T08:21:53;12.80;;;11.07;;
68168;SDS011;54981;50.206;15.978;2023-09-08T08:24:23;11.82;;;10.60;;
68168;SDS011;54981;50.206;15.978;2023-09-08T08:26:54;11.75;;;9.75;;
68168;SDS011;54981;50.206;15.978;2023-09-08T08:29:24;9.68;;;8.30;;
68168;SDS011;54981;50.206;15.978;2023-09-08T08:31:54;10.95;;;8.73;;
68168;SDS011;54981;50.206;15.978;2023-09-08T08:34:25;9.80;;;8.75;;
68168;SDS011;54981;50.206;15.978;2023-09-08T08:36:55;8.60;;;7.57;;
68168;SDS011;54981;50.206;15.978;2023-09-08T08:39:26;11.35;;;8.90;;
68168;SDS011;54981;50.206;15.978;2023-09-08T08:41:57;10.38;;;8.35;;
68168;SDS011;54981;50.206;15.978;2023-09-08T08:44:39;9.32;;;8.27;;
68168;SDS011;54981;50.206;15.978;2023-09-08T08:47:10;10.13;;;8.18;;
68168;SDS011;54981;50.206;15.978;2023-09-08T08:49:43;9.43;;;8.20;;
68168;SDS011;54981;50.206;15.978;2023-09-08T08:52:17;9.88;;;8.35;;
68168;SDS011;54981;50.206;15.978;2023-09-08T08:54:48;8.95;;;7.65;;
68168;SDS011;54981;50.206;15.978;2023-09-08T08:57:19;10.32;;;7.63;;
68168;SDS011;54981;50.206;15.978;2023-09-08T08:59:53;9.13;;;7.43;;
68168;SDS011;54981;50.206;15.978;2023-09-08T09:02:24;10.60;;;7.25;;
68168;SDS011;54981;50.206;15.978;2023-09-08T09:04:55;7.90;;;7.05;;
68168;SDS011;54981;50.206;15.978;2023-09-08T09:07:26;10.13;;;7.68;;
68168;SDS011;54981;50.206;15.978;2023-09-08T09:09:57;8.65;;;7.75;;
68168;SDS011;54981;50.206;15.978;2023-09-08T09:12:28;8.82;;;7.57;;
68168;SDS011;54981;50.206;15.978;2023-09-08T09:14:59;11.05;;;7.40;;
68168;SDS011;54981;50.206;15.978;2023-09-08T09:17:34;8.77;;;7.07;;
68168;SDS011;54981;50.206;15.978;2023-09-08T09:20:15;9.90;;;7.43;;
68168;SDS011;54981;50.206;15.978;2023-09-08T09:22:47;8.05;;;7.18;;
68168;SDS011;54981;50.206;15.978;2023-09-08T09:25:22;8.65;;;6.93;;
68168;SDS011;54981;50.206;15.978;2023-09-08T09:27:58;8.65;;;7.18;;
68168;SDS011;54981;50.206;15.978;2023-09-08T09:30:46;8.20;;;6.68;;
68168;SDS011;54981;50.206;15.978;2023-09-08T09:33:18;12.13;;;7.90;;
68168;SDS011;54981;50.206;15.978;2023-09-08T09:35:50;9.48;;;7.18;;
68168;SDS011;54981;50.206;15.978;2023-09-08T09:38:21;9.30;;;6.93;;
68168;SDS011;54981;50.206;15.978;2023-09-08T09:40:52;9.07;;;7.25;;
68168;SDS011;54981;50.206;15.978;2023-09-08T09:43:22;9.38;;;6.47;;
68168;SDS011;54981;50.206;15.978;2023-09-08T09:45:53;8.18;;;6.97;;
68168;SDS011;54981;50.206;15.978;2023-09-08T09:48:23;10.48;;;6.50;;
68168;SDS011;54981;50.206;15.978;2023-09-08T09:50:54;9.85;;;6.47;;
68168;SDS011;54981;50.206;15.978;2023-09-08T09:53:24;8.27;;;6.35;;
68168;SDS011;54981;50.206;15.978;2023-09-08T09:55:55;8.80;;;6.75;;
68168;SDS011;54981;50.206;15.978;2023-09-08T09:58:26;9.93;;;7.20;;
68168;SDS011;54981;50.206;15.978;2023-09-08T10:00:57;10.73;;;6.97;;
68168;SDS011;54981;50.206;15.978;2023-09-08T10:03:30;7.68;;;6.28;;
68168;SDS011;54981;50.206;15.978;2023-09-08T10:06:02;9.13;;;6.88;;
68168;SDS011;54981;50.206;15.978;2023-09-08T10:08:33;8.75;;;6.40;;
68168;SDS011;54981;50.206;15.978;2023-09-08T10:11:07;7.65;;;6.45;;
68168;SDS011;54981;50.206;15.978;2023-09-08T10:13:39;12.90;;;6.32;;
68168;SDS011;54981;50.206;15.978;2023-09-08T10:16:12;9.75;;;7.30;;
68168;SDS011;54981;50.206;15.978;2023-09-08T10:18:46;9.43;;;6.25;;
68168;SDS011;54981;50.206;15.978;2023-09-08T10:21:19;9.25;;;7.38;;
68168;SDS011;54981;50.206;15.978;2023-09-08T10:23:54;9.43;;;6.63;;
68168;SDS011;54981;50.206;15.978;2023-09-08T10:26:34;7.80;;;6.43;;
68168;SDS011;54981;50.206;15.978;2023-09-08T10:29:09;8.30;;;5.85;;
68168;SDS011;54981;50.206;15.978;2023-09-08T10:31:40;8.05;;;6.72;;
68168;SDS011;54981;50.206;15.978;2023-09-08T10:34:11;10.00;;;6.00;;
68168;SDS011;54981;50.206;15.978;2023-09-08T10:36:42;7.10;;;6.40;;
68168;SDS011;54981;50.206;15.978;2023-09-08T10:47:26;7.82;;;6.22;;
68168;SDS011;54981;50.206;15.978;2023-09-08T10:50:01;7.55;;;6.35;;
68168;SDS011;54981;50.206;15.978;2023-09-08T10:52:32;8.13;;;6.32;;
68168;SDS011;54981;50.206;15.978;2023-09-08T10:55:05;8.55;;;6.13;;
68168;SDS011;54981;50.206;15.978;2023-09-08T10:57:36;8.27;;;6.55;;
68168;SDS011;54981;50.206;15.978;2023-09-08T11:00:07;7.38;;;5.95;;
68168;SDS011;54981;50.206;15.978;2023-09-08T11:02:43;9.75;;;6.60;;
68168;SDS011;54981;50.206;15.978;2023-09-08T11:05:19;7.38;;;6.35;;
68168;SDS011;54981;50.206;15.978;2023-09-08T11:07:51;6.45;;;5.47;;
68168;SDS011;54981;50.206;15.978;2023-09-08T11:10:23;8.57;;;6.28;;
68168;SDS011;54981;50.206;15.978;2023-09-08T11:12:54;8.90;;;6.03;;
68168;SDS011;54981;50.206;15.978;2023-09-08T11:15:24;8.18;;;6.00;;
68168;SDS011;54981;50.206;15.978;2023-09-08T11:17:55;7.82;;;6.32;;
68168;SDS011;54981;50.206;15.978;2023-09-08T11:20:26;8.48;;;5.88;;
68168;SDS011;54981;50.206;15.978;2023-09-08T11:22:57;9.23;;;6.03;;
68168;SDS011;54981;50.206;15.978;2023-09-08T11:25:28;7.57;;;5.57;;
68168;SDS011;54981;50.206;15.978;2023-09-08T11:27:58;8.38;;;5.75;;
68168;SDS011;54981;50.206;15.978;2023-09-08T11:30:29;10.32;;;5.72;;
68168;SDS011;54981;50.206;15.978;2023-09-08T11:32:59;6.95;;;5.50;;
68168;SDS011;54981;50.206;15.978;2023-09-08T11:35:31;8.18;;;5.50;;
68168;SDS011;54981;50.206;15.978;2023-09-08T11:38:02;7.32;;;5.38;;
68168;SDS011;54981;50.206;15.978;2023-09-08T11:40:34;7.53;;;5.60;;
68168;SDS011;54981;50.206;15.978;2023-09-08T11:43:06;6.55;;;5.68;;
68168;SDS011;54981;50.206;15.978;2023-09-08T11:45:37;7.13;;;5.70;;
68168;SDS011;54981;50.206;15.978;2023-09-08T11:48:07;8.40;;;6.03;;
68168;SDS011;54981;50.206;15.978;2023-09-08T11:50:38;8.27;;;5.53;;
68168;SDS011;54981;50.206;15.978;2023-09-08T11:53:11;6.30;;;5.57;;
68168;SDS011;54981;50.206;15.978;2023-09-08T11:55:41;7.22;;;5.32;;
68168;SDS011;54981;50.206;15.978;2023-09-08T11:58:12;9.55;;;6.22;;
68168;SDS011;54981;50.206;15.978;2023-09-08T12:00:43;8.23;;;5.75;;
68168;SDS011;54981;50.206;15.978;2023-09-08T12:03:15;8.37;;;5.83;;
68168;SDS011;54981;50.206;15.978;2023-09-08T12:05:50;6.30;;;5.10;;
68168;SDS011;54981;50.206;15.978;2023-09-08T12:08:24;8.45;;;6.10;;
68168;SDS011;54981;50.206;15.978;2023-09-08T12:10:55;8.52;;;5.75;;
68168;SDS011;54981;50.206;15.978;2023-09-08T12:13:25;9.55;;;6.13;;
68168;SDS011;54981;50.206;15.978;2023-09-08T12:15:56;8.95;;;5.85;;
68168;SDS011;54981;50.206;15.978;2023-09-08T12:18:39;7.68;;;6.00;;
68168;SDS011;54981;50.206;15.978;2023-09-08T12:21:10;9.55;;;5.68;;
68168;SDS011;54981;50.206;15.978;2023-09-08T12:23:47;6.60;;;5.25;;
68168;SDS011;54981;50.206;15.978;2023-09-08T12:26:19;7.63;;;5.95;;
68168;SDS011;54981;50.206;15.978;2023-09-08T12:28:50;7.40;;;5.57;;
68168;SDS011;54981;50.206;15.978;2023-09-08T12:31:22;8.57;;;5.57;;
68168;SDS011;54981;50.206;15.978;2023-09-08T12:33:52;6.82;;;5.63;;
68168;SDS011;54981;50.206;15.978;2023-09-08T12:36:23;7.72;;;5.35;;
68168;SDS011;54981;50.206;15.978;2023-09-08T12:38:53;8.13;;;5.32;;
68168;SDS011;54981;50.206;15.978;2023-09-08T12:41:23;8.20;;;5.57;;
68168;SDS011;54981;50.206;15.978;2023-09-08T12:43:54;12.90;;;6.10;;
68168;SDS011;54981;50.206;15.978;2023-09-08T12:46:25;7.47;;;5.72;;
68168;SDS011;54981;50.206;15.978;2023-09-08T12:48:55;8.20;;;5.57;;
68168;SDS011;54981;50.206;15.978;2023-09-08T12:51:25;7.03;;;5.60;;
68168;SDS011;54981;50.206;15.978;2023-09-08T12:53:56;7.38;;;6.22;;
68168;SDS011;54981;50.206;15.978;2023-09-08T12:56:26;7.15;;;5.75;;
68168;SDS011;54981;50.206;15.978;2023-09-08T12:58:56;7.78;;;5.65;;
68168;SDS011;54981;50.206;15.978;2023-09-08T13:01:28;10.00;;;6.07;;
68168;SDS011;54981;50.206;15.978;2023-09-08T13:03:59;8.25;;;5.70;;
68168;SDS011;54981;50.206;15.978;2023-09-08T13:06:29;7.85;;;4.88;;
68168;SDS011;54981;50.206;15.978;2023-09-08T13:09:02;8.45;;;5.97;;
68168;SDS011;54981;50.206;15.978;2023-09-08T13:11:33;9.52;;;5.80;;
68168;SDS011;54981;50.206;15.978;2023-09-08T13:14:03;9.10;;;5.95;;
68168;SDS011;54981;50.206;15.978;2023-09-08T13:16:33;6.28;;;5.40;;
68168;SDS011;54981;50.206;15.978;2023-09-08T13:19:04;7.40;;;5.40;;
68168;SDS011;54981;50.206;15.978;2023-09-08T13:21:35;6.32;;;5.07;;
68168;SDS011;54981;50.206;15.978;2023-09-08T13:24:06;5.93;;;5.00;;
68168;SDS011;54981;50.206;15.978;2023-09-08T13:26:37;6.95;;;5.30;;
68168;SDS011;54981;50.206;15.978;2023-09-08T13:29:08;6.97;;;5.40;;
68168;SDS011;54981;50.206;15.978;2023-09-08T13:31:38;7.80;;;4.97;;
68168;SDS011;54981;50.206;15.978;2023-09-08T13:34:08;7.00;;;5.57;;
68168;SDS011;54981;50.206;15.978;2023-09-08T13:36:39;6.20;;;5.25;;
68168;SDS011;54981;50.206;15.978;2023-09-08T13:39:09;7.05;;;5.22;;
68168;SDS011;54981;50.206;15.978;2023-09-08T13:41:50;7.40;;;4.80;;
68168;SDS011;54981;50.206;15.978;2023-09-08T13:44:22;7.50;;;5.38;;
68168;SDS011;54981;50.206;15.978;2023-09-08T13:46:54;7.35;;;5.03;;
68168;SDS011;54981;50.206;15.978;2023-09-08T13:49:25;8.85;;;5.22;;
68168;SDS011;54981;50.206;15.978;2023-09-08T13:51:56;8.02;;;5.47;;
68168;SDS011;54981;50.206;15.978;2023-09-08T13:54:26;6.93;;;5.57;;
68168;SDS011;54981;50.206;15.978;2023-09-08T13:57:01;7.00;;;5.07;;
68168;SDS011;54981;50.206;15.978;2023-09-08T13:59:32;6.70;;;5.07;;
68168;SDS011;54981;50.206;15.978;2023-09-08T14:02:03;7.32;;;5.65;;
68168;SDS011;54981;50.206;15.978;2023-09-08T14:04:33;8.57;;;5.30;;
68168;SDS011;54981;50.206;15.978;2023-09-08T14:07:04;7.05;;;5.30;;
68168;SDS011;54981;50.206;15.978;2023-09-08T14:09:34;7.75;;;5.75;;
68168;SDS011;54981;50.206;15.978;2023-09-08T14:12:06;6.22;;;5.25;;
68168;SDS011;54981;50.206;15.978;2023-09-08T14:14:36;6.07;;;5.20;;
68168;SDS011;54981;50.206;15.978;2023-09-08T14:17:07;6.75;;;4.97;;
68168;SDS011;54981;50.206;15.978;2023-09-08T14:19:37;7.05;;;5.82;;
68168;SDS011;54981;50.206;15.978;2023-09-08T14:22:07;7.20;;;5.43;;
68168;SDS011;54981;50.206;15.978;2023-09-08T14:24:38;8.32;;;5.32;;
68168;SDS011;54981;50.206;15.978;2023-09-08T14:27:08;6.93;;;5.57;;
68168;SDS011;54981;50.206;15.978;2023-09-08T14:29:38;6.90;;;5.15;;
68168;SDS011;54981;50.206;15.978;2023-09-08T14:32:09;7.45;;;5.55;;
68168;SDS011;54981;50.206;15.978;2023-09-08T14:34:39;6.93;;;5.68;;
68168;SDS011;54981;50.206;15.978;2023-09-08T14:37:10;8.43;;;5.28;;
68168;SDS011;54981;50.206;15.978;2023-09-08T14:39:40;6.78;;;5.28;;
68168;SDS011;54981;50.206;15.978;2023-09-08T14:42:10;6.90;;;5.68;;
68168;SDS011;54981;50.206;15.978;2023-09-08T14:44:41;7.07;;;5.10;;
68168;SDS011;54981;50.206;15.978;2023-09-08T14:47:11;6.97;;;5.55;;
68168;SDS011;54981;50.206;15.978;2023-09-08T14:49:42;8.07;;;4.97;;
68168;SDS011;54981;50.206;15.978;2023-09-08T14:52:13;6.80;;;5.65;;
68168;SDS011;54981;50.206;15.978;2023-09-08T14:54:43;7.05;;;5.22;;
68168;SDS011;54981;50.206;15.978;2023-09-08T14:57:14;7.07;;;5.53;;